AFR198 LFPG-VTBS
Flight info
| Callsign | AFR198 |
|---|---|
| Flight time | N/A |
| Altitude | 35000 |
| Route | LANVI DCT BEGAR DCT TRA DCT GAMSA DCT GEDSO DCT ABTAN DCT GOTAR DCT TEGRI DCT OPT DCT LUGEB DCT UDROS UN743 GAKSU UT310 SIN UM860 CRM UM11 REBLO M11 RODAR A909 TUNEK B143 KRS A240 INRAK B449 DOLOS B475 NINOP A909 LEMOD N644 DI A466 SULOM M890 LKN R460 CEA L507 IGONI WILLA1C |
| Aircraft | B772/H-SDE2E3FGHIJ5LORVWXY/LB1D1 |
Departure
| Time | 2026-05-04 20:13 |
|---|---|
| Airport | Charles de Gaulle International Airport (LFPG) |
Arrival
| Time | N/A |
|---|---|
| Airport | Suvarnabhumi Airport (VTBS) |
| Time | Latitude | Longitude | Altitude | Speed | Heading |
|---|---|---|---|---|---|
| 2026-05-04 18:47 | 49.00265 | 2.59005 | 358 ft | 0 kts | 84° |
| 2026-05-04 19:57 | 49.00264 | 2.58987 | 366 ft | 4 kts | 88° |
| 2026-05-04 19:57 | 49.00263 | 2.58954 | 365 ft | 3 kts | 84° |
| 2026-05-04 19:57 | 49.00263 | 2.58903 | 365 ft | 4 kts | 108° |
| 2026-05-04 19:58 | 49.00268 | 2.58883 | 365 ft | 4 kts | 136° |
| 2026-05-04 19:58 | 49.00283 | 2.58872 | 365 ft | 4 kts | 175° |
| 2026-05-04 19:58 | 49.00305 | 2.58870 | 366 ft | 0 kts | 175° |
| 2026-05-04 20:03 | 49.00302 | 2.58870 | 358 ft | 1 kts | 175° |
| 2026-05-04 20:03 | 49.00288 | 2.58872 | 366 ft | 3 kts | 175° |
| 2026-05-04 20:04 | 49.00263 | 2.58875 | 361 ft | 4 kts | 175° |
| 2026-05-04 20:04 | 49.00230 | 2.58879 | 363 ft | 5 kts | 175° |
| 2026-05-04 20:04 | 49.00190 | 2.58884 | 340 ft | 6 kts | 175° |
| 2026-05-04 20:04 | 49.00144 | 2.58890 | 364 ft | 7 kts | 175° |
| 2026-05-04 20:05 | 49.00094 | 2.58896 | 362 ft | 8 kts | 177° |
| 2026-05-04 20:05 | 49.00050 | 2.58857 | 366 ft | 8 kts | 234° |
| 2026-05-04 20:05 | 49.00038 | 2.58778 | 358 ft | 8 kts | 264° |
| 2026-05-04 20:05 | 49.00033 | 2.58690 | 358 ft | 9 kts | 265° |
| 2026-05-04 20:06 | 49.00028 | 2.58595 | 358 ft | 9 kts | 265° |
| 2026-05-04 20:06 | 49.00023 | 2.58494 | 358 ft | 10 kts | 265° |
| 2026-05-04 20:06 | 49.00017 | 2.58384 | 366 ft | 11 kts | 265° |
| 2026-05-04 20:06 | 49.00010 | 2.58265 | 363 ft | 12 kts | 265° |
| 2026-05-04 20:07 | 49.00003 | 2.58136 | 363 ft | 13 kts | 265° |
| 2026-05-04 20:07 | 48.99996 | 2.57997 | 360 ft | 14 kts | 265° |
| 2026-05-04 20:07 | 48.99988 | 2.57846 | 365 ft | 15 kts | 265° |
| 2026-05-04 20:07 | 48.99979 | 2.57683 | 361 ft | 16 kts | 265° |
| 2026-05-04 20:08 | 48.99970 | 2.57506 | 358 ft | 17 kts | 265° |
| 2026-05-04 20:08 | 48.99959 | 2.57315 | 365 ft | 19 kts | 265° |
| 2026-05-04 20:08 | 48.99949 | 2.57113 | 364 ft | 19 kts | 265° |
| 2026-05-04 20:08 | 48.99938 | 2.56912 | 358 ft | 19 kts | 265° |
| 2026-05-04 20:09 | 48.99927 | 2.56707 | 364 ft | 20 kts | 265° |
| 2026-05-04 20:09 | 48.99915 | 2.56495 | 366 ft | 21 kts | 265° |
| 2026-05-04 20:09 | 48.99905 | 2.56304 | 361 ft | 19 kts | 265° |
| 2026-05-04 20:09 | 48.99896 | 2.56114 | 358 ft | 15 kts | 265° |
| 2026-05-04 20:10 | 48.99890 | 2.55983 | 358 ft | 13 kts | 269° |
| 2026-05-04 20:10 | 48.99899 | 2.55891 | 360 ft | 6 kts | 284° |
| 2026-05-04 20:10 | 48.99891 | 2.55819 | 364 ft | 8 kts | 232° |
| 2026-05-04 20:10 | 48.99840 | 2.55799 | 362 ft | 8 kts | 179° |
| 2026-05-04 20:11 | 48.99775 | 2.55805 | 364 ft | 11 kts | 175° |
| 2026-05-04 20:11 | 48.99701 | 2.55814 | 362 ft | 11 kts | 175° |
| 2026-05-04 20:11 | 48.99649 | 2.55821 | 362 ft | 5 kts | 174° |
| 2026-05-04 20:11 | 48.99618 | 2.55827 | 363 ft | 4 kts | 165° |
| 2026-05-04 20:12 | 48.99604 | 2.55867 | 365 ft | 6 kts | 95° |
| 2026-05-04 20:12 | 48.99607 | 2.55948 | 358 ft | 13 kts | 86° |
| 2026-05-04 20:12 | 48.99625 | 2.56287 | 366 ft | 61 kts | 85° |
| 2026-05-04 20:12 | 48.99679 | 2.57306 | 356 ft | 129 kts | 85° |
| 2026-05-04 20:13 | 48.99773 | 2.58949 | 378 ft | 180 kts | 84° |
| 2026-05-04 20:13 | 48.99876 | 2.60869 | 962 ft | 183 kts | 85° |
| 2026-05-04 20:13 | 48.99974 | 2.62801 | 1749 ft | 182 kts | 85° |
| 2026-05-04 20:13 | 49.00074 | 2.64724 | 2468 ft | 182 kts | 85° |
| 2026-05-04 20:14 | 49.00176 | 2.66662 | 3009 ft | 185 kts | 85° |
| 2026-05-04 20:14 | 49.00279 | 2.68622 | 3556 ft | 188 kts | 85° |
| 2026-05-04 20:14 | 49.00390 | 2.70712 | 3808 ft | 208 kts | 85° |
| 2026-05-04 20:14 | 49.00508 | 2.73008 | 3980 ft | 227 kts | 85° |
| 2026-05-04 20:15 | 49.00635 | 2.75464 | 4207 ft | 246 kts | 85° |
| 2026-05-04 20:15 | 49.00741 | 2.78136 | 4524 ft | 258 kts | 92° |
| 2026-05-04 20:15 | 49.00522 | 2.80876 | 5002 ft | 264 kts | 99° |
| 2026-05-04 20:15 | 49.00184 | 2.83650 | 5590 ft | 267 kts | 100° |
| 2026-05-04 20:16 | 48.99855 | 2.86451 | 6232 ft | 269 kts | 99° |
| 2026-05-04 20:16 | 48.99543 | 2.89270 | 6815 ft | 271 kts | 99° |
| 2026-05-04 20:16 | 48.99239 | 2.92114 | 7381 ft | 273 kts | 99° |
| 2026-05-04 20:16 | 48.98940 | 2.94947 | 7916 ft | 276 kts | 99° |
| 2026-05-04 20:17 | 48.98660 | 2.97849 | 8469 ft | 278 kts | 97° |
| 2026-05-04 20:17 | 48.98411 | 3.00825 | 9021 ft | 281 kts | 97° |
| 2026-05-04 20:17 | 48.98116 | 3.03728 | 9514 ft | 283 kts | 104° |
| 2026-05-04 20:17 | 48.97538 | 3.06612 | 9964 ft | 286 kts | 109° |
| 2026-05-04 20:18 | 48.96849 | 3.09510 | 10235 ft | 299 kts | 110° |
| 2026-05-04 20:18 | 48.96105 | 3.12564 | 10356 ft | 316 kts | 110° |
| 2026-05-04 20:18 | 48.95326 | 3.15784 | 10490 ft | 333 kts | 110° |
| 2026-05-04 20:18 | 48.94512 | 3.19188 | 10731 ft | 348 kts | 110° |
| 2026-05-04 20:19 | 48.93681 | 3.22712 | 11191 ft | 358 kts | 109° |
| 2026-05-04 20:19 | 48.92841 | 3.26304 | 11792 ft | 363 kts | 109° |
| 2026-05-04 20:19 | 48.91997 | 3.29937 | 12513 ft | 365 kts | 109° |
| 2026-05-04 20:19 | 48.91151 | 3.33590 | 13256 ft | 368 kts | 109° |
| 2026-05-04 20:20 | 48.90297 | 3.37284 | 13927 ft | 372 kts | 109° |
| 2026-05-04 20:20 | 48.89433 | 3.41022 | 14526 ft | 376 kts | 109° |
| 2026-05-04 20:20 | 48.88560 | 3.44795 | 15120 ft | 380 kts | 110° |
| 2026-05-04 20:20 | 48.87690 | 3.48553 | 15689 ft | 384 kts | 110° |
| 2026-05-04 20:21 | 48.86797 | 3.52400 | 16259 ft | 388 kts | 110° |
| 2026-05-04 20:21 | 48.85894 | 3.56286 | 16821 ft | 392 kts | 110° |
| 2026-05-04 20:21 | 48.84059 | 3.64161 | 17923 ft | 399 kts | 111° |
| 2026-05-04 20:22 | 48.83125 | 3.68158 | 18422 ft | 403 kts | 111° |
| 2026-05-04 20:22 | 48.82184 | 3.72176 | 18884 ft | 406 kts | 111° |
| 2026-05-04 20:22 | 48.81233 | 3.76230 | 19366 ft | 409 kts | 111° |
| 2026-05-04 20:22 | 48.80275 | 3.80308 | 19837 ft | 411 kts | 111° |
| 2026-05-04 20:23 | 48.79309 | 3.84410 | 20283 ft | 414 kts | 111° |
| 2026-05-04 20:23 | 48.78336 | 3.88537 | 20730 ft | 417 kts | 111° |
| 2026-05-04 20:23 | 48.77354 | 3.92691 | 21151 ft | 420 kts | 111° |
| 2026-05-04 20:23 | 48.76363 | 3.96875 | 21580 ft | 423 kts | 111° |
| 2026-05-04 20:24 | 48.75365 | 4.01081 | 22021 ft | 426 kts | 112° |
| 2026-05-04 20:24 | 48.74369 | 4.05272 | 22451 ft | 429 kts | 112° |
| 2026-05-04 20:24 | 48.73355 | 4.09531 | 22876 ft | 431 kts | 112° |
| 2026-05-04 20:24 | 48.72332 | 4.13813 | 23288 ft | 434 kts | 112° |
| 2026-05-04 20:25 | 48.71300 | 4.18131 | 23673 ft | 437 kts | 112° |
| 2026-05-04 20:25 | 48.70259 | 4.22479 | 24032 ft | 439 kts | 112° |
| 2026-05-04 20:25 | 48.69214 | 4.26832 | 24400 ft | 441 kts | 112° |
| 2026-05-04 20:25 | 48.68163 | 4.31202 | 24767 ft | 443 kts | 112° |
| 2026-05-04 20:26 | 48.67105 | 4.35594 | 25119 ft | 445 kts | 113° |
| 2026-05-04 20:26 | 48.66038 | 4.40011 | 25455 ft | 447 kts | 113° |
| 2026-05-04 20:26 | 48.64967 | 4.44438 | 25800 ft | 450 kts | 113° |
| 2026-05-04 20:26 | 48.63889 | 4.48884 | 26157 ft | 452 kts | 113° |
| 2026-05-04 20:27 | 48.62803 | 4.53352 | 26493 ft | 454 kts | 113° |
| 2026-05-04 20:27 | 48.61710 | 4.57844 | 26839 ft | 456 kts | 114° |
| 2026-05-04 20:27 | 48.60611 | 4.62347 | 27173 ft | 458 kts | 114° |
| 2026-05-04 20:27 | 48.59504 | 4.66877 | 27499 ft | 460 kts | 114° |
| 2026-05-04 20:28 | 48.58392 | 4.71416 | 27830 ft | 462 kts | 114° |
| 2026-05-04 20:28 | 48.57274 | 4.75973 | 28141 ft | 464 kts | 114° |
| 2026-05-04 20:28 | 48.56145 | 4.80562 | 28453 ft | 466 kts | 114° |
| 2026-05-04 20:28 | 48.55024 | 4.85112 | 28759 ft | 468 kts | 114° |
| 2026-05-04 20:29 | 48.53883 | 4.89731 | 29065 ft | 471 kts | 114° |
| 2026-05-04 20:29 | 48.52735 | 4.94372 | 29360 ft | 473 kts | 114° |
| 2026-05-04 20:29 | 48.51580 | 4.99029 | 29656 ft | 475 kts | 114° |
| 2026-05-04 20:29 | 48.50420 | 5.03698 | 29937 ft | 477 kts | 114° |
| 2026-05-04 20:30 | 48.49251 | 5.08395 | 30195 ft | 479 kts | 115° |
| 2026-05-04 20:30 | 48.48078 | 5.13096 | 30404 ft | 480 kts | 115° |
| 2026-05-04 20:30 | 48.46896 | 5.17825 | 30641 ft | 482 kts | 115° |
| 2026-05-04 20:30 | 48.45708 | 5.22565 | 30879 ft | 483 kts | 115° |
| 2026-05-04 20:31 | 48.44519 | 5.27303 | 31087 ft | 484 kts | 115° |
| 2026-05-04 20:31 | 48.43325 | 5.32049 | 31284 ft | 486 kts | 115° |
| 2026-05-04 20:31 | 48.42126 | 5.36805 | 31512 ft | 486 kts | 115° |
| 2026-05-04 20:31 | 48.40924 | 5.41561 | 31796 ft | 485 kts | 115° |
| 2026-05-04 20:32 | 48.39726 | 5.46296 | 32095 ft | 483 kts | 115° |
| 2026-05-04 20:32 | 48.38529 | 5.51017 | 32394 ft | 482 kts | 115° |
| 2026-05-04 20:32 | 48.37331 | 5.55731 | 32673 ft | 482 kts | 115° |
| 2026-05-04 20:32 | 48.36133 | 5.60434 | 32939 ft | 481 kts | 115° |
| 2026-05-04 20:33 | 48.34934 | 5.65128 | 33201 ft | 481 kts | 115° |
| 2026-05-04 20:33 | 48.33752 | 5.69753 | 33476 ft | 480 kts | 115° |
| 2026-05-04 20:33 | 48.32550 | 5.74444 | 33740 ft | 480 kts | 115° |
| 2026-05-04 20:33 | 48.31352 | 5.79116 | 33969 ft | 479 kts | 115° |
| 2026-05-04 20:34 | 48.30243 | 5.83855 | 34171 ft | 481 kts | 112° |
| 2026-05-04 20:34 | 48.29195 | 5.88627 | 34314 ft | 482 kts | 112° |
| 2026-05-04 20:34 | 48.28164 | 5.93416 | 34510 ft | 482 kts | 112° |
| 2026-05-04 20:34 | 48.27134 | 5.98215 | 34689 ft | 482 kts | 112° |
| 2026-05-04 20:35 | 48.26102 | 6.03002 | 34862 ft | 483 kts | 112° |
| 2026-05-04 20:35 | 48.25055 | 6.07815 | 34921 ft | 486 kts | 112° |
| 2026-05-04 20:35 | 48.22935 | 6.17470 | 34995 ft | 488 kts | 112° |
| 2026-05-04 20:36 | 48.20805 | 6.27105 | 34988 ft | 484 kts | 112° |
| 2026-05-04 20:36 | 48.18685 | 6.36643 | 34988 ft | 481 kts | 112° |
| 2026-05-04 20:37 | 48.16566 | 6.46135 | 34987 ft | 480 kts | 112° |
| 2026-05-04 20:37 | 48.14456 | 6.55538 | 34991 ft | 480 kts | 113° |
| 2026-05-04 20:38 | 48.12320 | 6.65016 | 34991 ft | 481 kts | 113° |
| 2026-05-04 20:38 | 48.10173 | 6.74507 | 35001 ft | 482 kts | 113° |
| 2026-05-04 20:39 | 48.08007 | 6.84032 | 34998 ft | 484 kts | 113° |
| 2026-05-04 20:39 | 48.05828 | 6.93578 | 34996 ft | 486 kts | 113° |
| 2026-05-04 20:40 | 48.03632 | 7.03157 | 34998 ft | 487 kts | 113° |
| 2026-05-04 20:40 | 48.01420 | 7.12758 | 34987 ft | 489 kts | 113° |
| 2026-05-04 20:41 | 47.99202 | 7.22351 | 34992 ft | 489 kts | 113° |
| 2026-05-04 20:41 | 47.96989 | 7.31876 | 34986 ft | 489 kts | 113° |
| 2026-05-04 20:42 | 47.94755 | 7.41451 | 34987 ft | 488 kts | 113° |
| 2026-05-04 20:42 | 47.92515 | 7.51010 | 34988 ft | 488 kts | 113° |
| 2026-05-04 20:43 | 47.90264 | 7.60539 | 34989 ft | 487 kts | 114° |
| 2026-05-04 20:43 | 47.87936 | 7.69844 | 34990 ft | 486 kts | 115° |
| 2026-05-04 20:44 | 47.85938 | 7.77667 | 34995 ft | 486 kts | 115° |